DW8906 Weather Reports


Display with metric or nautical units.
time (UTC)temp
F
wind
direction
speed
MPH
gust
MPH
rain 1hr
in
rain 24hr
in
rain mn
in
humidity
%
barometer
mb
20200119131106 19 293 0.0 2.0 0.00 0.00 0.00 61 1025.1
20200119125805 18 270 3.0 3.0 0.00 0.00 0.00 63 1025.1
20200119124706 18 270 3.0 4.0 0.00 0.00 0.00 61 1024.7
20200119123606 19 338 1.0 2.0 0.00 0.00 0.00 60 1024.7
20200119122606 18 270 3.0 3.0 0.00 0.00 0.00 63 1024.7
20200119121406 18 293 2.0 3.0 0.00 0.00 0.00 63 1024.4
20200119120306 18 293 2.0 2.0 0.00 0.00 0.00 63 1024.7
20200119115206 19 293 2.0 4.0 0.00 0.00 0.00 61 1024.7
20200119114106 19 315 2.0 3.0 0.00 0.00 0.00 61 1024.7
20200119113105 18 270 3.0 4.0 0.00 0.00 0.00 63 1024.7
20200119112005 17 315 2.0 2.0 0.00 0.00 0.00 63 1024.7
20200119110905 19 270 2.0 4.0 0.00 0.00 0.00 61 1024.7
20200119105806 20 0 0.0 4.0 0.00 0.00 0.00 58 1024.4
20200119104706 19 270 3.0 4.0 0.00 0.00 0.00 61 1024.4
20200119103606 19 68 0.0 2.0 0.00 0.00 0.00 60 1024.7
20200119102506 19 293 3.0 3.0 0.00 0.00 0.00 60 1024.4
20200119101505 19 315 4.0 4.0 0.00 0.00 0.00 60 1024.4
20200119100406 21 113 0.0 2.0 0.00 0.00 0.00 56 1024.7
20200119095206 20 270 4.0 4.0 0.00 0.00 0.00 59 1024.7
20200119094105 20 248 3.0 4.0 0.00 0.00 0.00 58 1024.7
20200119093006 19 293 1.0 3.0 0.00 0.00 0.00 60 1024.7
20200119092005 19 293 3.0 4.0 0.00 0.00 0.00 61 1024.7
20200119090906 18 270 3.0 3.0 0.00 0.00 0.00 63 1024.7
20200119085906 18 338 2.0 3.0 0.00 0.00 0.00 63 1024.7
20200119084806 17 293 3.0 3.0 0.00 0.00 0.00 65 1024.7
20200119083705 18 158 2.0 4.0 0.00 0.00 0.00 63 1024.4
20200119082606 17 293 3.0 3.0 0.00 0.00 0.00 65 1024.4
20200119081605 17 270 2.0 2.0 0.00 0.00 0.00 65 1024.7
20200119080506 17 293 2.0 3.0 0.00 0.00 0.00 63 1024.4
20200119075506 17 293 3.0 3.0 0.00 0.00 0.00 63 1024.4
20200119074306 18 270 4.0 5.0 0.00 0.00 0.00 63 1024.4
20200119073206 17 315 2.0 3.0 0.00 0.00 0.00 63 1024.4
20200119072106 18 293 2.0 2.0 0.00 0.00 0.00 63 1024.4
20200119071105 18 270 2.0 2.0 0.00 0.00 0.00 63 1024.4
20200119070009 19 45 0.0 2.0 0.00 0.00 0.00 60 1024.7
20200119065906 19 338 0.0 3.0 0.00 0.00 0.00 60 1024.4
20200119064806 20 293 0.0 0.0 0.00 0.00 0.00 58 1024.4
20200119063706 21 270 2.0 3.0 0.00 0.00 0.00 55 1024.0
20200119062629 22 293 2.0 5.0 0.00 0.00 0.00 55 1024.4
20200119061506 22 270 3.0 5.0 0.00 0.00 0.00 54 1024.0
20200119060409 23 248 3.0 4.0 0.00 0.00 0.00 53 1023.7
20200119055306 24 293 3.0 6.0 0.00 0.00 0.00 53 1023.7
20200119054306 23 338 6.0 9.0 0.00 0.00 0.00 54 1023.4
20200119053206 23 315 6.0 7.0 0.00 0.00 0.00 54 1023.7
20200119052106 22 338 4.0 5.0 0.00 0.00 0.00 55 1023.7
20200119051006 22 68 1.0 3.0 0.00 0.00 0.00 53 1023.7
20200119045906 24 293 5.0 8.0 0.00 0.00 0.00 50 1023.4
20200119044806 23 0 4.0 7.0 0.00 0.00 0.00 51 1023.4
20200119043706 22 315 4.0 4.0 0.00 0.00 0.00 51 1023.7
20200119042607 23 0 4.0 5.0 0.00 0.00 0.00 51 1023.7
20200119041506 22 90 4.0 4.0 0.00 0.00 0.00 54 1023.7
20200119040406 23 270 0.0 4.0 0.00 0.00 0.00 51 1023.4
20200119035206 24 270 4.0 6.0 0.00 0.00 0.00 51 1023.0
20200119034106 24 293 4.0 6.0 0.00 0.00 0.00 51 1023.4
20200119032809 24 315 6.0 6.0 0.00 0.00 0.00 50 1023.4
20200119031707 24 270 5.0 5.0 0.00 0.00 0.00 51 1023.4
20200119030606 22 270 4.0 4.0 0.00 0.00 0.00 54 1023.4
20200119025509 20 315 3.0 4.0 0.00 0.00 0.00 58 1023.4
20200119024406 20 293 0.0 0.0 0.00 0.00 0.00 59 1023.7
20200119023106 20 315 0.0 0.0 0.00 0.00 0.00 58 1023.4
20200119021806 20 315 2.0 2.0 0.00 0.00 0.00 56 1023.4
20200119020506 21 270 1.0 3.0 0.00 0.00 0.00 55 1023.4
20200119015306 21 293 1.0 3.0 0.00 0.00 0.00 55 1023.4
20200119014306 21 270 3.0 4.0 0.00 0.00 0.00 55 1023.0
20200119013206 21 293 0.0 0.0 0.00 0.00 0.00 55 1023.4
20200119012106 22 293 0.0 3.0 0.00 0.00 0.00 54 1023.0
20200119011006 24 45 3.0 3.0 0.00 0.00 0.00 50 1023.4
20200119005906 24 270 1.0 1.0 0.00 0.00 0.00 49 1023.0
20200119004806 25 203 2.0 4.0 0.00 0.00 0.00 49 1023.0
20200119003706 25 315 2.0 3.0 0.00 0.00 0.00 49 1023.0
20200119002606 26 225 0.0 0.0 0.00 0.00 0.00 46 1022.7
20200119001506 27 180 0.0 3.0 0.00 0.00 0.00 45 1023.0
20200119000407 27 203 2.0 3.0 0.00 0.00 0.00 45 1022.7
20200118235306 28 180 1.0 2.0 0.00 0.00 0.00 44 1022.7
20200118234206 29 158 3.0 5.0 0.00 0.00 0.00 43 1022.7
20200118233106 29 180 2.0 3.0 0.00 0.00 0.00 43 1022.7
20200118232105 30 203 3.0 5.0 0.00 0.00 0.00 40 1022.4
20200118231006 30 180 5.0 5.0 0.00 0.00 0.00 40 1022.4
20200118225906 31 180 4.0 6.0 0.00 0.00 0.00 40 1022.0
20200118224806 31 203 6.0 8.0 0.00 0.00 0.00 40 1022.0
20200118223706 31 203 7.0 10.0 0.00 0.00 0.00 40 1022.0
20200118222606 31 180 9.0 9.0 0.00 0.00 0.00 40 1021.7
20200118221505 32 158 6.0 11.0 0.00 0.00 0.00 40 1021.7
20200118220406 32 180 10.0 11.0 0.00 0.00 0.00 40 1021.3
20200118215306 33 180 6.0 13.0 0.00 0.00 0.00 41 1021.3
20200118214306 32 180 6.0 11.0 0.00 0.00 0.00 41 1021.3
20200118213206 31 180 6.0 10.0 0.00 0.00 0.00 44 1021.3
20200118212205 31 158 7.0 12.0 0.00 0.00 0.00 44 1021.3
20200118211107 31 135 6.0 12.0 0.00 0.00 0.00 43 1021.3
20200118210005 31 180 6.0 11.0 0.00 0.00 0.00 44 1021.3
20200118204906 31 203 10.0 11.0 0.00 0.00 0.00 44 1021.3
20200118203806 31 113 6.0 10.0 0.00 0.00 0.00 45 1021.3
20200118202705 30 225 9.0 11.0 0.00 0.00 0.00 46 1021.3
20200118201607 31 270 9.0 11.0 0.00 0.00 0.00 45 1021.3
20200118200507 31 203 8.0 13.0 0.00 0.00 0.00 45 1021.3
20200118195506 30 203 9.0 13.0 0.00 0.00 0.00 48 1021.3
20200118194406 30 203 9.0 12.0 0.00 0.00 0.00 49 1021.7
20200118193306 28 203 8.0 13.0 0.00 0.00 0.00 49 1021.7
20200118192305 28 180 6.0 12.0 0.00 0.00 0.00 48 1021.7
20200118191206 29 180 8.0 12.0 0.00 0.00 0.00 46 1022.0
20200118190106 29 180 9.0 11.0 0.00 0.00 0.00 49 1022.0
20200118185006 28 203 10.0 14.0 0.00 0.00 0.00 49 1022.0
20200118183906 28 180 12.0 13.0 0.00 0.00 0.00 49 1022.4
20200118182905 29 248 8.0 11.0 0.00 0.00 0.00 50 1022.4
20200118181807 27 180 7.0 11.0 0.00 0.00 0.00 53 1022.7
20200118180706 26 203 10.0 10.0 0.00 0.00 0.00 54 1022.7
20200118175606 25 203 11.0 11.0 0.00 0.00 0.00 55 1022.7
20200118174605 25 203 5.0 12.0 0.00 0.00 0.00 56 1022.7
20200118173506 24 180 9.0 13.0 0.00 0.00 0.00 60 1022.7
20200118172406 23 180 6.0 11.0 0.00 0.00 0.00 61 1022.7
20200118171306 22 203 7.0 16.0 0.00 0.00 0.00 63 1022.7
20200118170206 22 158 8.0 9.0 0.00 0.00 0.00 65 1022.7
20200118165205 21 203 6.0 10.0 0.00 0.00 0.00 65 1022.7
20200118164106 20 90 6.0 11.0 0.00 0.00 0.00 71 1023.0
20200118163006 20 225 4.0 7.0 0.00 0.00 0.00 74 1022.7
20200118161906 19 203 2.0 8.0 0.00 0.00 0.00 76 1022.7
20200118160905 18 180 7.0 7.0 0.00 0.00 0.00 78 1022.4
20200118155806 17 180 3.0 9.0 0.00 0.00 0.00 81 1022.4
20200118154706 17 158 4.0 8.0 0.00 0.00 0.00 81 1022.4
20200118153606 17 180 6.0 7.0 0.00 0.00 0.00 78 1022.4
20200118152506 16 180 4.0 7.0 0.00 0.00 0.00 75 1022.0
20200118151421 16 248 4.0 5.0 0.00 0.00 0.00 66 1021.7
20200118150406 15 270 5.0 5.0 0.00 0.00 0.00 68 1021.7
20200118145305 14 270 1.0 8.0 0.00 0.00 0.00 69 1021.7
20200118144206 14 248 6.0 7.0 0.00 0.00 0.00 65 1021.7
20200118143106 15 203 2.0 6.0 0.00 0.00 0.00 63 1021.7
20200118142106 15 248 4.0 8.0 0.00 0.00 0.00 61 1021.3
20200118140906 15 225 3.0 7.0 0.00 0.00 0.00 58 1021.3
20200118135806 16 248 2.0 6.0 0.00 0.00 0.00 55 1021.3
20200118134706 17 270 7.0 9.0 0.00 0.00 0.00 53 1021.0
20200118133606 18 225 3.0 4.0 0.00 0.00 0.00 46 1021.0
20200118132506 17 248 3.0 3.0 0.00 0.00 0.00 48 1020.7